Time;durP1;ratioP1;P1;durP2;ratioP2;P2;SDS_P1;SDS_P2;PMS_P1;PMS_P2;Temp;Humidity;BMP_temperature;BMP_pressure;BME280_temperature;BME280_humidity;BME280_pressure;Samples;Min_cycle;Max_cycle;Signal;HPM_P1;HPM_P2
2024/02/20 00:00:12;;;;;;;2.63;1.60;;;7.90;99.90;;;;;;5027765;28;20916;-58
2024/02/20 00:02:42;;;;;;;5.07;2.00;;;7.90;99.90;;;;;;5033374;28;21878;-58
2024/02/20 00:05:10;;;;;;;2.50;1.73;;;7.90;99.90;;;;;;5022546;28;21787;-57
2024/02/20 00:07:39;;;;;;;4.37;1.93;;;7.90;99.90;;;;;;5026187;28;21065;-58
2024/02/20 00:10:10;;;;;;;1.90;1.23;;;7.90;99.90;;;;;;5028231;28;20470;-57
2024/02/20 00:12:38;;;;;;;4.30;1.80;;;7.90;99.90;;;;;;5029372;28;20896;-58
2024/02/20 00:15:09;;;;;;;2.57;1.70;;;7.90;99.90;;;;;;5018288;28;22207;-58
2024/02/20 00:17:38;;;;;;;3.53;1.77;;;7.90;99.90;;;;;;5029927;28;20901;-58
2024/02/20 00:20:08;;;;;;;4.07;1.80;;;7.90;99.90;;;;;;5023888;28;20474;-58
2024/02/20 00:22:36;;;;;;;5.70;2.77;;;7.90;99.90;;;;;;5024166;28;20995;-58
2024/02/20 00:25:05;;;;;;;5.63;2.20;;;7.90;99.90;;;;;;5025913;28;20471;-58
2024/02/20 00:27:35;;;;;;;3.53;1.60;;;7.90;99.90;;;;;;5023868;28;20524;-58
2024/02/20 00:30:05;;;;;;;4.53;2.00;;;7.90;99.90;;;;;;5031294;28;20470;-57
2024/02/20 00:32:34;;;;;;;7.17;2.10;;;7.90;99.90;;;;;;5030084;28;21023;-57
2024/02/20 00:35:02;;;;;;;4.10;2.10;;;7.90;99.90;;;;;;5032369;28;20470;-58
2024/02/20 00:37:31;;;;;;;8.17;2.40;;;7.80;99.90;;;;;;5026126;28;20489;-57
2024/02/20 00:39:59;;;;;;;6.90;2.40;;;7.80;99.90;;;;;;5030997;28;20842;-58
2024/02/20 00:42:27;;;;;;;3.67;2.00;;;7.80;99.90;;;;;;5028607;28;20571;-58
2024/02/20 00:44:55;;;;;;;2.90;2.40;;;7.80;99.90;;;;;;5033449;28;20561;-58
2024/02/20 00:47:24;;;;;;;6.80;2.10;;;7.80;99.90;;;;;;5028005;28;20486;-58
2024/02/20 00:49:54;;;;;;;6.67;2.33;;;7.80;99.90;;;;;;5023009;28;20475;-57
2024/02/20 00:52:22;;;;;;;6.10;2.30;;;7.80;99.90;;;;;;5021118;28;20467;-58
2024/02/20 00:54:50;;;;;;;7.10;2.60;;;7.80;99.90;;;;;;5025036;28;20463;-57
2024/02/20 00:57:18;;;;;;;4.10;2.10;;;7.80;99.90;;;;;;5024641;28;20884;-57
2024/02/20 00:59:46;;;;;;;4.23;2.33;;;7.80;99.90;;;;;;5025037;28;20478;-57
2024/02/20 01:02:14;;;;;;;3.17;2.00;;;7.80;99.90;;;;;;5020368;28;20528;-57
2024/02/20 01:04:42;;;;;;;6.10;2.00;;;7.80;99.90;;;;;;5029585;28;20482;-57
2024/02/20 01:07:12;;;;;;;5.47;2.43;;;7.80;99.90;;;;;;5026153;28;20582;-57
2024/02/20 01:09:40;;;;;;;5.70;2.03;;;7.80;99.90;;;;;;5026804;28;20502;-58
2024/02/20 01:12:09;;;;;;;3.40;2.10;;;7.80;99.90;;;;;;5018428;28;20472;-57
2024/02/20 01:14:41;;;;;;;4.53;2.17;;;7.80;99.90;;;;;;5031030;28;20964;-57
2024/02/20 01:17:09;;;;;;;6.53;2.00;;;7.80;99.90;;;;;;5023649;28;20498;-57
2024/02/20 01:19:37;;;;;;;3.30;2.40;;;7.80;99.90;;;;;;5028144;28;20972;-57
2024/02/20 01:22:05;;;;;;;9.27;2.20;;;7.80;99.90;;;;;;5022591;28;20872;-57
2024/02/20 01:24:35;;;;;;;4.33;2.47;;;7.80;99.90;;;;;;5033062;28;20478;-57
2024/02/20 01:27:03;;;;;;;5.50;1.93;;;7.80;99.90;;;;;;5022787;28;20545;-56
2024/02/20 01:29:31;;;;;;;5.87;2.40;;;7.80;99.90;;;;;;5026303;28;20490;-56
2024/02/20 01:31:59;;;;;;;4.60;1.87;;;7.80;99.90;;;;;;5027141;28;20475;-56
2024/02/20 01:34:27;;;;;;;4.93;1.90;;;7.80;99.90;;;;;;5026346;28;20980;-57
2024/02/20 01:36:55;;;;;;;6.00;2.43;;;7.80;99.90;;;;;;5025547;28;20570;-57
2024/02/20 01:39:23;;;;;;;4.80;1.70;;;7.80;99.90;;;;;;5031347;28;20462;-60
2024/02/20 01:41:53;;;;;;;4.77;1.90;;;7.80;99.90;;;;;;5022485;28;20859;-57
2024/02/20 01:44:22;;;;;;;5.40;2.03;;;7.80;99.90;;;;;;5023016;28;20493;-60
2024/02/20 01:46:52;;;;;;;6.07;1.93;;;7.80;99.90;;;;;;5026225;28;20548;-60
2024/02/20 01:49:20;;;;;;;5.67;2.30;;;7.80;99.90;;;;;;5031642;28;20495;-58
2024/02/20 01:51:49;;;;;;;5.63;2.10;;;7.80;99.90;;;;;;5025036;28;20597;-57
2024/02/20 01:54:17;;;;;;;4.43;2.17;;;7.70;99.90;;;;;;5024553;28;20487;-57
2024/02/20 01:56:46;;;;;;;6.00;1.80;;;7.80;99.90;;;;;;5027491;28;20623;-59
2024/02/20 01:59:15;;;;;;;4.37;1.83;;;7.70;99.90;;;;;;5024885;28;20474;-56
2024/02/20 02:01:43;;;;;;;6.07;2.40;;;7.70;99.90;;;;;;5020584;28;21093;-57
2024/02/20 02:04:11;;;;;;;5.60;2.50;;;7.80;99.90;;;;;;5023356;28;21243;-59
2024/02/20 02:06:41;;;;;;;5.00;2.70;;;7.80;99.90;;;;;;5026547;28;21333;-57
2024/02/20 02:09:09;;;;;;;7.50;2.30;;;7.80;99.90;;;;;;5021863;28;20491;-59
2024/02/20 02:11:39;;;;;;;7.50;2.27;;;7.70;99.90;;;;;;5029576;28;20483;-59
2024/02/20 02:14:08;;;;;;;5.30;3.27;;;7.70;99.90;;;;;;5026235;28;20471;-59
2024/02/20 02:16:38;;;;;;;4.07;2.60;;;7.70;99.90;;;;;;5022321;28;20561;-59
2024/02/20 02:19:06;;;;;;;7.13;3.20;;;7.70;99.90;;;;;;5028883;28;20467;-60
2024/02/20 02:21:36;;;;;;;8.83;3.50;;;7.70;99.90;;;;;;5025210;28;20482;-59
2024/02/20 02:24:07;;;;;;;7.87;3.00;;;7.70;99.90;;;;;;5032554;28;20827;-57
2024/02/20 02:26:37;;;;;;;9.00;3.27;;;7.70;99.90;;;;;;5011383;28;20488;-59
2024/02/20 02:29:05;;;;;;;7.37;3.00;;;7.70;99.90;;;;;;5028046;28;20494;-58
2024/02/20 02:31:33;;;;;;;7.47;3.23;;;7.70;99.90;;;;;;5026407;28;20474;-59
2024/02/20 02:34:01;;;;;;;13.57;3.47;;;7.70;99.90;;;;;;5023401;28;20477;-58
2024/02/20 02:36:30;;;;;;;12.80;3.93;;;7.70;99.90;;;;;;5023886;28;20535;-59
2024/02/20 02:38:58;;;;;;;8.23;2.80;;;7.70;99.90;;;;;;5032486;28;20467;-59
2024/02/20 02:41:26;;;;;;;9.80;4.37;;;7.70;99.90;;;;;;5025248;28;20550;-57
2024/02/20 02:43:55;;;;;;;11.50;3.57;;;7.70;99.90;;;;;;5024926;28;20569;-59
2024/02/20 02:46:23;;;;;;;9.20;3.10;;;7.70;99.90;;;;;;5025512;28;22111;-59
2024/02/20 02:48:51;;;;;;;15.13;4.00;;;7.80;99.90;;;;;;5024203;28;20936;-58
2024/02/20 02:51:20;;;;;;;12.00;3.63;;;7.70;99.90;;;;;;5022196;28;20486;-58
2024/02/20 02:53:48;;;;;;;10.50;5.13;;;7.70;99.90;;;;;;5028924;28;20579;-58
2024/02/20 02:56:16;;;;;;;13.03;4.03;;;7.70;99.90;;;;;;5019519;28;20906;-59
2024/02/20 02:58:44;;;;;;;14.83;4.20;;;7.60;99.90;;;;;;5021104;28;20507;-58
2024/02/20 03:01:13;;;;;;;13.73;3.30;;;7.60;99.90;;;;;;5025795;28;20540;-59
2024/02/20 03:03:42;;;;;;;14.53;3.93;;;7.60;99.90;;;;;;5031385;28;20466;-59
2024/02/20 03:06:10;;;;;;;11.07;4.10;;;7.60;99.90;;;;;;5032311;28;20494;-58
2024/02/20 03:08:38;;;;;;;12.07;3.73;;;7.50;99.90;;;;;;5027641;28;21342;-58
2024/02/20 03:11:07;;;;;;;15.80;3.37;;;7.50;99.90;;;;;;5032779;28;20796;-59
2024/02/20 03:13:35;;;;;;;12.33;3.20;;;7.50;99.90;;;;;;5037439;28;20471;-59
2024/02/20 03:16:05;;;;;;;11.40;3.13;;;7.40;99.90;;;;;;5031622;28;20492;-59
2024/02/20 03:18:37;;;;;;;9.33;3.00;;;7.40;99.90;;;;;;5031019;28;20491;-59
2024/02/20 03:21:07;;;;;;;8.53;2.77;;;7.40;99.90;;;;;;5037699;28;20463;-59
2024/02/20 03:23:35;;;;;;;14.10;3.80;;;7.40;99.90;;;;;;5039180;28;20502;-59
2024/02/20 03:26:03;;;;;;;13.07;3.77;;;7.40;99.90;;;;;;5034613;28;20568;-59
2024/02/20 03:28:32;;;;;;;12.67;3.40;;;7.40;99.90;;;;;;5039601;28;20543;-59
2024/02/20 03:31:00;;;;;;;15.70;3.67;;;7.50;99.90;;;;;;5037793;28;20494;-59
2024/02/20 03:33:30;;;;;;;13.17;3.10;;;7.40;99.90;;;;;;5039747;28;20477;-59
2024/02/20 03:36:00;;;;;;;16.20;3.37;;;7.40;99.90;;;;;;5033629;28;20490;-58
2024/02/20 03:38:28;;;;;;;9.73;2.93;;;7.40;99.90;;;;;;5034563;28;20495;-59
2024/02/20 03:40:56;;;;;;;13.50;3.43;;;7.40;99.90;;;;;;5028064;28;20562;-59
2024/02/20 03:43:24;;;;;;;12.07;3.23;;;7.30;99.90;;;;;;5027447;28;20927;-57
2024/02/20 03:45:52;;;;;;;14.43;3.20;;;7.30;99.90;;;;;;5019264;28;20548;-59
2024/02/20 03:48:21;;;;;;;11.47;3.07;;;7.30;99.90;;;;;;5024940;28;20567;-58
2024/02/20 03:50:49;;;;;;;9.80;3.20;;;7.30;99.90;;;;;;5023914;28;20515;-59
2024/02/20 03:53:18;;;;;;;7.63;2.40;;;7.30;99.90;;;;;;5018522;28;20562;-57
2024/02/20 03:55:46;;;;;;;13.63;3.50;;;7.30;99.90;;;;;;5024987;28;20487;-59
2024/02/20 03:58:14;;;;;;;8.90;3.03;;;7.20;99.90;;;;;;5023966;28;20486;-59
2024/02/20 04:00:42;;;;;;;12.07;3.10;;;7.20;99.90;;;;;;5024932;28;20470;-59
2024/02/20 04:03:10;;;;;;;9.53;2.70;;;7.20;99.90;;;;;;5022595;28;22730;-59
2024/02/20 04:05:38;;;;;;;8.73;3.20;;;7.20;99.90;;;;;;5021124;28;20498;-58
2024/02/20 04:08:07;;;;;;;10.30;2.77;;;7.20;99.90;;;;;;5026097;28;20501;-59
2024/02/20 04:10:36;;;;;;;18.43;4.03;;;7.10;99.90;;;;;;5017078;28;20603;-59
2024/02/20 04:13:05;;;;;;;12.90;4.20;;;7.20;99.90;;;;;;5024996;28;20497;-58
2024/02/20 04:15:33;;;;;;;19.63;3.87;;;7.20;99.90;;;;;;5026387;28;20491;-58
2024/02/20 04:18:01;;;;;;;12.67;4.93;;;7.20;99.90;;;;;;5023288;28;20492;-59
2024/02/20 04:20:29;;;;;;;15.70;4.90;;;7.20;99.90;;;;;;5024225;28;20462;-59
2024/02/20 04:22:57;;;;;;;11.40;3.20;;;7.20;99.90;;;;;;5020298;28;21128;-58
2024/02/20 04:25:25;;;;;;;9.00;3.23;;;7.20;99.90;;;;;;5019964;28;20481;-57
2024/02/20 04:27:55;;;;;;;11.37;3.83;;;7.20;99.90;;;;;;5022180;28;20690;-59
2024/02/20 04:30:23;;;;;;;10.63;3.73;;;7.20;99.90;;;;;;5020135;28;20892;-59
2024/02/20 04:32:51;;;;;;;14.90;3.70;;;7.20;99.90;;;;;;5033728;28;20559;-59
2024/02/20 04:35:19;;;;;;;16.10;4.57;;;7.20;99.90;;;;;;5030182;28;20483;-60
2024/02/20 04:37:47;;;;;;;16.50;4.23;;;7.20;99.90;;;;;;5030069;28;20950;-59
2024/02/20 04:40:16;;;;;;;13.60;4.40;;;7.20;99.90;;;;;;5028353;28;20958;-58
2024/02/20 04:42:45;;;;;;;15.20;4.10;;;7.20;99.90;;;;;;5020324;28;20475;-58
2024/02/20 04:45:14;;;;;;;11.03;3.13;;;7.20;99.90;;;;;;5021993;28;21941;-59
2024/02/20 04:47:42;;;;;;;13.27;3.60;;;7.20;99.90;;;;;;5023958;28;20855;-59
2024/02/20 04:50:11;;;;;;;18.53;4.47;;;7.20;99.90;;;;;;5024033;28;20491;-59
2024/02/20 04:52:39;;;;;;;16.17;3.63;;;7.20;99.90;;;;;;5027830;28;20509;-59
2024/02/20 04:55:07;;;;;;;21.70;4.83;;;7.10;99.90;;;;;;5033693;28;20467;-58
2024/02/20 04:57:35;;;;;;;13.37;3.50;;;7.20;99.90;;;;;;5025828;28;20716;-58
2024/02/20 05:00:09;;;;;;;18.20;4.67;;;7.20;99.90;;;;;;5030897;28;21026;-59
2024/02/20 05:02:40;;;;;;;20.00;4.33;;;7.20;99.90;;;;;;5021520;28;20981;-59
2024/02/20 05:05:08;;;;;;;20.87;5.33;;;7.20;99.90;;;;;;5020062;28;20501;-59
2024/02/20 05:07:37;;;;;;;21.83;4.17;;;7.20;99.90;;;;;;5026258;28;20585;-58
2024/02/20 05:10:07;;;;;;;17.20;4.50;;;7.20;99.90;;;;;;5026387;28;20489;-58
2024/02/20 05:12:37;;;;;;;16.30;4.07;;;7.20;99.90;;;;;;5026009;28;20455;-58
2024/02/20 05:15:06;;;;;;;20.53;5.20;;;7.20;99.90;;;;;;5024909;28;20586;-58
2024/02/20 05:17:34;;;;;;;16.97;3.87;;;7.20;99.90;;;;;;5027793;28;20522;-57
2024/02/20 05:20:03;;;;;;;19.63;5.83;;;7.20;99.90;;;;;;5028848;28;20576;-58
2024/02/20 05:22:32;;;;;;;19.43;5.10;;;7.20;99.90;;;;;;5032274;28;20548;-57
2024/02/20 05:25:00;;;;;;;15.03;5.00;;;7.20;99.90;;;;;;5029634;28;20555;-58
2024/02/20 05:27:28;;;;;;;22.40;5.50;;;7.30;99.90;;;;;;5026176;28;20930;-58
2024/02/20 05:29:56;;;;;;;21.43;5.20;;;7.30;99.90;;;;;;5028447;28;21071;-57
2024/02/20 05:32:24;;;;;;;19.10;4.93;;;7.30;99.90;;;;;;5029061;28;20494;-58
2024/02/20 05:34:53;;;;;;;20.47;5.17;;;7.30;99.90;;;;;;5032689;28;20479;-57
2024/02/20 05:37:22;;;;;;;19.53;5.23;;;7.30;99.90;;;;;;5029870;28;20503;-57
2024/02/20 05:39:50;;;;;;;22.03;5.07;;;7.30;99.90;;;;;;5034153;28;20471;-58
2024/02/20 05:42:18;;;;;;;13.87;4.97;;;7.30;99.90;;;;;;5033826;28;20805;-57
2024/02/20 05:44:46;;;;;;;27.20;5.40;;;7.20;99.90;;;;;;5035902;28;20478;-58
2024/02/20 05:47:14;;;;;;;19.27;5.53;;;7.30;99.90;;;;;;5014158;28;20787;-57
2024/02/20 05:49:42;;;;;;;14.00;4.30;;;7.30;99.90;;;;;;5027448;28;20502;-58
2024/02/20 05:52:11;;;;;;;23.77;6.30;;;7.30;99.90;;;;;;5019441;28;20508;-57
2024/02/20 05:54:40;;;;;;;18.50;4.93;;;7.30;99.90;;;;;;5030054;28;20478;-58
2024/02/20 05:57:08;;;;;;;19.47;4.57;;;7.20;99.90;;;;;;5024656;28;20837;-57
2024/02/20 05:59:36;;;;;;;17.30;4.57;;;7.30;99.90;;;;;;5023929;28;20553;-57
2024/02/20 06:02:04;;;;;;;19.57;5.00;;;7.30;99.90;;;;;;5018538;28;20551;-57
2024/02/20 06:04:33;;;;;;;18.70;4.77;;;7.30;99.90;;;;;;5026230;28;20509;-57
2024/02/20 06:07:01;;;;;;;19.80;4.50;;;7.30;99.90;;;;;;5012896;28;21003;-57
2024/02/20 06:09:29;;;;;;;23.97;5.33;;;7.30;99.90;;;;;;5015784;28;20481;-57
2024/02/20 06:11:59;;;;;;;19.07;5.63;;;7.20;99.90;;;;;;5023610;28;20920;-58
2024/02/20 06:14:27;;;;;;;15.93;4.10;;;7.20;99.90;;;;;;5027257;28;20562;-58
2024/02/20 06:16:55;;;;;;;20.93;5.07;;;7.20;99.90;;;;;;5018221;28;20547;-57
2024/02/20 06:19:23;;;;;;;19.90;4.57;;;7.20;99.90;;;;;;5016142;28;20637;-57
2024/02/20 06:21:51;;;;;;;18.93;3.90;;;7.20;99.90;;;;;;5018503;28;20512;-58
2024/02/20 06:24:19;;;;;;;20.40;4.30;;;7.20;99.90;;;;;;5028347;28;20475;-58
2024/02/20 06:26:47;;;;;;;16.03;4.60;;;7.20;99.90;;;;;;5018271;28;22137;-57
2024/02/20 06:29:17;;;;;;;22.07;5.43;;;7.20;99.90;;;;;;5026213;28;21541;-57
2024/02/20 06:31:51;;;;;;;19.90;5.10;;;7.20;99.90;;;;;;5017282;28;21034;-57
2024/02/20 06:34:19;;;;;;;18.90;4.60;;;7.20;99.90;;;;;;5017957;28;20486;-57
2024/02/20 06:36:47;;;;;;;15.80;4.20;;;7.20;99.90;;;;;;5016817;28;20533;-58
2024/02/20 06:39:15;;;;;;;20.57;4.80;;;7.20;99.90;;;;;;5019215;28;20563;-58
2024/02/20 06:41:43;;;;;;;16.57;4.80;;;7.20;99.90;;;;;;5022417;28;21025;-57
2024/02/20 06:44:11;;;;;;;18.10;4.20;;;7.20;99.90;;;;;;5031322;28;20561;-57
2024/02/20 06:46:41;;;;;;;21.80;5.17;;;7.20;99.90;;;;;;5023638;28;20597;-58
2024/02/20 06:49:09;;;;;;;15.93;4.60;;;7.20;99.90;;;;;;5024969;28;20561;-58
2024/02/20 06:51:37;;;;;;;16.03;4.03;;;7.20;99.90;;;;;;5023141;28;20501;-56
2024/02/20 06:54:06;;;;;;;18.70;4.53;;;7.20;99.90;;;;;;5022803;28;20563;-57
2024/02/20 06:56:34;;;;;;;17.70;4.67;;;7.20;99.90;;;;;;5027218;28;20523;-57
2024/02/20 06:59:02;;;;;;;14.30;4.40;;;7.30;99.90;;;;;;5029552;28;20503;-57
2024/02/20 07:01:32;;;;;;;20.07;5.13;;;7.30;99.90;;;;;;5034475;28;20553;-58
2024/02/20 07:04:02;;;;;;;25.93;5.40;;;7.30;99.90;;;;;;5037517;28;20625;-58
2024/02/20 07:06:33;;;;;;;28.10;5.10;;;7.30;99.90;;;;;;5038019;28;20561;-58
2024/02/20 07:09:03;;;;;;;20.20;4.90;;;7.30;99.90;;;;;;5038646;28;20853;-57
2024/02/20 07:11:31;;;;;;;16.03;4.90;;;7.30;99.90;;;;;;5039382;28;20494;-57
2024/02/20 07:13:59;;;;;;;24.50;5.60;;;7.40;99.90;;;;;;5027888;28;20463;-58
2024/02/20 07:16:27;;;;;;;16.80;4.33;;;7.40;99.90;;;;;;5034224;28;20569;-58
2024/02/20 07:18:55;;;;;;;22.13;5.80;;;7.40;99.90;;;;;;5030225;28;20765;-58
2024/02/20 07:21:24;;;;;;;20.73;4.60;;;7.40;99.90;;;;;;5030830;28;20543;-58
2024/02/20 07:23:52;;;;;;;17.97;6.00;;;7.40;99.90;;;;;;5029074;28;20897;-57
2024/02/20 07:26:20;;;;;;;16.03;4.33;;;7.40;99.90;;;;;;5032548;28;21126;-58
2024/02/20 07:28:48;;;;;;;18.47;4.60;;;7.40;99.90;;;;;;5035808;28;20543;-58
2024/02/20 07:31:21;;;;;;;18.80;5.00;;;7.50;99.90;;;;;;5039203;28;20971;-58
2024/02/20 07:33:50;;;;;;;16.17;4.60;;;7.50;99.90;;;;;;5032199;28;20470;-58
2024/02/20 07:36:32;;;;;;;22.37;5.40;;;7.50;99.90;;;;;;5030037;28;20621;-57
2024/02/20 07:39:00;;;;;;;18.53;5.77;;;7.50;99.90;;;;;;5031749;28;20562;-58
2024/02/20 07:41:28;;;;;;;15.77;4.80;;;7.50;99.90;;;;;;5032579;28;20458;-57
2024/02/20 07:43:56;;;;;;;16.33;4.90;;;7.50;99.90;;;;;;5028753;28;20933;-58
2024/02/20 07:46:24;;;;;;;10.20;3.83;;;7.50;99.90;;;;;;5031640;28;20888;-58
2024/02/20 07:48:52;;;;;;;16.03;4.33;;;7.50;99.90;;;;;;5026535;28;20470;-57
2024/02/20 07:51:23;;;;;;;17.20;4.03;;;7.60;99.90;;;;;;5031246;28;20480;-58
2024/02/20 07:53:52;;;;;;;20.30;5.00;;;7.60;99.90;;;;;;5030620;28;20526;-57
2024/02/20 07:56:23;;;;;;;17.43;4.47;;;7.60;99.90;;;;;;5026999;28;20541;-56
2024/02/20 07:58:51;;;;;;;25.97;7.07;;;7.60;99.90;;;;;;5032753;28;20481;-58
2024/02/20 08:01:20;;;;;;;25.10;5.03;;;7.70;99.90;;;;;;5027749;28;21043;-58
2024/02/20 08:03:52;;;;;;;19.53;4.90;;;7.70;99.90;;;;;;5028960;28;20979;-58
2024/02/20 08:06:20;;;;;;;14.13;4.37;;;7.70;99.90;;;;;;5028211;28;20494;-57
2024/02/20 08:08:49;;;;;;;15.37;4.43;;;7.80;99.90;;;;;;5035872;28;20476;-57
2024/02/20 08:11:18;;;;;;;15.90;4.70;;;7.80;99.90;;;;;;5028492;28;21407;-58
2024/02/20 08:13:48;;;;;;;13.57;4.03;;;7.80;99.90;;;;;;5025975;28;20502;-57
2024/02/20 08:16:17;;;;;;;15.83;3.40;;;7.80;99.90;;;;;;5023731;28;20490;-57
2024/02/20 08:18:45;;;;;;;17.67;5.03;;;7.80;99.90;;;;;;5026975;28;20540;-58
2024/02/20 08:21:14;;;;;;;17.97;5.50;;;7.80;99.90;;;;;;5029594;28;20481;-59
2024/02/20 08:23:43;;;;;;;16.20;4.70;;;7.80;99.90;;;;;;5029740;28;20499;-57
2024/02/20 08:26:11;;;;;;;17.30;4.30;;;7.80;99.90;;;;;;5028202;28;20511;-60
2024/02/20 08:28:42;;;;;;;18.63;4.63;;;7.90;99.90;;;;;;5036592;28;20514;-59
2024/02/20 08:31:11;;;;;;;14.23;4.40;;;7.90;99.90;;;;;;5031573;28;21042;-57
2024/02/20 08:33:39;;;;;;;13.90;4.67;;;7.90;99.90;;;;;;5031398;28;20494;-59
2024/02/20 08:36:08;;;;;;;15.67;4.90;;;7.80;99.90;;;;;;5029596;28;20498;-58
2024/02/20 08:38:36;;;;;;;19.37;6.00;;;7.90;99.90;;;;;;5029287;28;21078;-58
2024/02/20 08:41:04;;;;;;;19.87;4.93;;;7.90;99.90;;;;;;5032199;28;20503;-58
2024/02/20 08:43:32;;;;;;;11.90;4.50;;;7.80;99.90;;;;;;5028955;28;20573;-58
2024/02/20 08:46:02;;;;;;;17.37;4.23;;;7.90;99.90;;;;;;5024164;28;20495;-59
2024/02/20 08:48:30;;;;;;;18.87;5.23;;;7.90;99.90;;;;;;5022923;28;21028;-58
2024/02/20 08:50:58;;;;;;;21.27;6.10;;;7.90;99.90;;;;;;5028144;28;20564;-58
2024/02/20 08:53:27;;;;;;;13.33;4.63;;;7.90;99.90;;;;;;5033513;28;20582;-58
2024/02/20 08:55:55;;;;;;;19.60;4.23;;;7.90;99.90;;;;;;5030398;28;20517;-58
2024/02/20 08:58:23;;;;;;;18.60;4.10;;;8.00;99.90;;;;;;5022281;28;20619;-58
2024/02/20 09:00:52;;;;;;;10.77;4.17;;;8.10;99.90;;;;;;5029326;28;20471;-58
2024/02/20 09:03:23;;;;;;;19.53;4.27;;;8.10;99.90;;;;;;5034759;28;20528;-58
2024/02/20 09:05:52;;;;;;;18.77;5.20;;;8.20;99.90;;;;;;5036165;28;20495;-58
2024/02/20 09:08:21;;;;;;;17.60;4.97;;;8.20;99.90;;;;;;5033376;28;20525;-58
2024/02/20 09:10:49;;;;;;;14.40;4.40;;;8.20;99.90;;;;;;5036079;28;20565;-58
2024/02/20 09:13:17;;;;;;;14.07;3.77;;;8.20;99.90;;;;;;5036543;28;20495;-58
2024/02/20 09:15:45;;;;;;;16.53;5.17;;;8.30;99.90;;;;;;5035621;28;21290;-58
2024/02/20 09:18:13;;;;;;;15.03;6.63;;;8.30;99.90;;;;;;5038204;28;20490;-58
2024/02/20 09:20:43;;;;;;;18.97;4.67;;;8.40;99.90;;;;;;5034353;28;20474;-58
2024/02/20 09:23:11;;;;;;;13.60;3.83;;;8.40;99.90;;;;;;5035741;28;20459;-58
2024/02/20 09:25:41;;;;;;;16.50;3.73;;;8.40;99.90;;;;;;5036685;28;20478;-58
2024/02/20 09:28:09;;;;;;;16.40;4.10;;;8.50;99.90;;;;;;5037588;28;20495;-58
2024/02/20 09:30:37;;;;;;;15.87;3.40;;;8.60;99.90;;;;;;5035278;28;20467;-58
2024/02/20 09:33:05;;;;;;;11.23;3.10;;;8.60;99.90;;;;;;5034344;28;21026;-58
2024/02/20 09:35:35;;;;;;;10.83;3.37;;;8.70;99.90;;;;;;5032513;28;20905;-58
2024/02/20 09:38:05;;;;;;;15.60;3.60;;;8.80;99.90;;;;;;5028819;28;20497;-58
2024/02/20 09:40:33;;;;;;;15.53;4.00;;;8.80;99.90;;;;;;5031503;28;20976;-57
2024/02/20 09:43:02;;;;;;;13.37;2.83;;;8.80;99.90;;;;;;5034569;28;21007;-58
2024/02/20 09:45:33;;;;;;;12.67;3.40;;;8.80;99.90;;;;;;5032448;28;20478;-58
2024/02/20 09:48:06;;;;;;;11.47;3.70;;;8.90;99.90;;;;;;5030668;28;21018;-58
2024/02/20 09:50:36;;;;;;;8.93;2.90;;;8.90;99.90;;;;;;5028022;28;20477;-58
2024/02/20 09:53:08;;;;;;;14.67;5.00;;;8.90;99.90;;;;;;5031509;28;20499;-58
2024/02/20 09:55:36;;;;;;;17.13;4.50;;;9.00;99.90;;;;;;5027902;28;20576;-58
2024/02/20 09:58:05;;;;;;;14.97;3.77;;;9.00;99.90;;;;;;5030777;28;20552;-58
2024/02/20 10:00:33;;;;;;;13.80;3.90;;;9.00;99.90;;;;;;5026677;28;20499;-57
2024/02/20 10:03:04;;;;;;;13.83;4.27;;;9.00;99.90;;;;;;5029515;28;20524;-58
2024/02/20 10:05:33;;;;;;;13.40;4.60;;;9.10;99.90;;;;;;5025912;28;20552;-57
2024/02/20 10:08:02;;;;;;;14.17;4.13;;;9.00;99.90;;;;;;5030132;28;20532;-58
2024/02/20 10:10:34;;;;;;;11.33;3.73;;;9.00;99.90;;;;;;5027724;28;20474;-58
2024/02/20 10:13:02;;;;;;;10.57;4.03;;;9.00;99.90;;;;;;5034207;28;20596;-58
2024/02/20 10:15:31;;;;;;;15.63;4.20;;;9.00;99.90;;;;;;5028914;28;20486;-57
2024/02/20 10:18:01;;;;;;;12.30;4.07;;;8.90;99.90;;;;;;5027645;28;20576;-58
2024/02/20 10:20:30;;;;;;;11.53;4.03;;;8.90;99.90;;;;;;5021888;28;20478;-58
2024/02/20 10:23:06;;;;;;;18.97;5.40;;;9.00;99.90;;;;;;5028158;28;20471;-58
2024/02/20 10:25:36;;;;;;;12.63;3.90;;;9.00;99.90;;;;;;5029169;28;20651;-57
2024/02/20 10:28:06;;;;;;;18.20;4.50;;;9.00;99.90;;;;;;5025525;28;20502;-58
2024/02/20 10:30:35;;;;;;;14.30;4.73;;;9.10;99.90;;;;;;5030794;28;21149;-58
2024/02/20 10:33:03;;;;;;;13.33;3.70;;;9.10;99.90;;;;;;5029430;28;20494;-58
2024/02/20 10:35:32;;;;;;;17.60;5.33;;;9.10;99.90;;;;;;5027363;28;20471;-57
2024/02/20 10:38:02;;;;;;;10.07;4.07;;;9.10;99.90;;;;;;5025763;28;20502;-58
2024/02/20 10:40:30;;;;;;;16.90;4.97;;;9.20;99.90;;;;;;5026846;28;20498;-58
2024/02/20 10:43:02;;;;;;;10.33;3.97;;;9.10;99.90;;;;;;5027672;28;20562;-57
2024/02/20 10:45:30;;;;;;;11.63;4.07;;;9.10;99.90;;;;;;5023129;28;20478;-58
2024/02/20 10:48:00;;;;;;;12.60;5.53;;;9.00;99.90;;;;;;5027629;28;20584;-59
2024/02/20 10:50:31;;;;;;;14.60;4.93;;;9.00;99.90;;;;;;5024102;28;20604;-58
2024/02/20 10:53:01;;;;;;;10.30;4.00;;;9.10;99.90;;;;;;5031236;28;20468;-59
2024/02/20 10:55:31;;;;;;;14.17;4.23;;;9.10;99.90;;;;;;5026497;28;20849;-59
2024/02/20 10:58:04;;;;;;;13.23;4.27;;;9.10;99.90;;;;;;5024001;28;20957;-58
2024/02/20 11:00:35;;;;;;;11.67;4.60;;;9.10;99.90;;;;;;5029193;28;20507;-58
2024/02/20 11:03:08;;;;;;;12.47;4.07;;;9.10;99.90;;;;;;5031115;28;20469;-58
2024/02/20 11:05:36;;;;;;;10.40;4.50;;;9.10;99.90;;;;;;5023438;28;20488;-57
2024/02/20 11:08:06;;;;;;;15.40;4.87;;;9.10;99.90;;;;;;5028613;28;20629;-58
2024/02/20 11:10:36;;;;;;;9.30;5.03;;;9.10;99.90;;;;;;5027540;28;20470;-58
2024/02/20 11:13:23;;;;;;;10.80;4.80;;;9.10;99.90;;;;;;5023427;28;20493;-58
2024/02/20 11:15:51;;;;;;;15.73;4.20;;;9.10;99.90;;;;;;5025878;28;20828;-58
2024/02/20 11:18:20;;;;;;;11.50;4.33;;;9.10;99.90;;;;;;5028794;28;20943;-58
2024/02/20 11:21:01;;;;;;;11.37;4.20;;;9.10;99.90;;;;;;5033494;28;20493;-58
2024/02/20 11:23:30;;;;;;;12.27;5.40;;;9.20;99.90;;;;;;5025056;28;20914;-59
2024/02/20 11:26:06;;;;;;;15.10;5.10;;;9.20;99.90;;;;;;5025090;28;20548;-59
2024/02/20 11:28:36;;;;;;;9.70;3.93;;;9.30;99.90;;;;;;5021101;28;20690;-58
2024/02/20 11:31:05;;;;;;;10.63;4.70;;;9.30;99.90;;;;;;5022041;28;20573;-58
2024/02/20 11:33:35;;;;;;;12.63;4.90;;;9.30;99.90;;;;;;5033956;28;20491;-58
2024/02/20 11:36:06;;;;;;;11.43;5.00;;;9.40;99.90;;;;;;5030990;28;20494;-57
2024/02/20 11:38:34;;;;;;;11.23;4.67;;;9.40;99.90;;;;;;5029728;28;20622;-58
2024/02/20 11:41:06;;;;;;;12.53;4.77;;;9.50;99.90;;;;;;5031916;28;20832;-57
2024/02/20 11:43:36;;;;;;;12.77;4.67;;;9.60;99.90;;;;;;5030470;28;20466;-58
2024/02/20 11:46:04;;;;;;;15.50;5.13;;;9.70;99.90;;;;;;5025584;28;20497;-57
2024/02/20 11:48:33;;;;;;;9.97;4.10;;;9.90;99.90;;;;;;5024973;28;20503;-58
2024/02/20 11:51:02;;;;;;;8.43;4.07;;;9.90;99.90;;;;;;5024387;28;20473;-58
2024/02/20 11:53:30;;;;;;;19.53;4.30;;;9.90;99.90;;;;;;5025642;28;20596;-57
2024/02/20 11:55:59;;;;;;;9.80;4.50;;;9.90;99.90;;;;;;5028026;28;21049;-58
2024/02/20 11:58:27;;;;;;;12.53;5.03;;;9.90;99.90;;;;;;5027294;28;20828;-58
2024/02/20 12:01:02;;;;;;;12.07;4.17;;;9.90;99.90;;;;;;5026979;28;20474;-58
2024/02/20 12:03:34;;;;;;;11.47;5.13;;;10.00;99.90;;;;;;5025215;28;20474;-56
2024/02/20 12:06:03;;;;;;;12.90;4.90;;;10.10;99.90;;;;;;5022180;28;20491;-58
2024/02/20 12:08:39;;;;;;;11.57;5.57;;;10.10;99.90;;;;;;5024873;28;21019;-58
2024/02/20 12:11:08;;;;;;;15.10;5.37;;;10.10;99.90;;;;;;5027867;28;20597;-58
2024/02/20 12:13:37;;;;;;;13.73;4.83;;;10.20;99.90;;;;;;5026603;28;20477;-57
2024/02/20 12:16:17;;;;;;;8.70;4.60;;;10.20;99.90;;;;;;5021819;28;20484;-57
2024/02/20 12:18:47;;;;;;;15.53;4.37;;;10.20;99.90;;;;;;5028409;28;20538;-57
2024/02/20 12:21:15;;;;;;;16.07;4.40;;;10.30;99.90;;;;;;5026398;28;20470;-57
2024/02/20 12:23:52;;;;;;;11.80;3.90;;;10.60;99.90;;;;;;5024325;28;20481;-58
2024/02/20 12:26:21;;;;;;;12.60;4.67;;;10.80;99.90;;;;;;5022710;28;20536;-58
2024/02/20 12:28:50;;;;;;;11.70;4.13;;;10.90;99.90;;;;;;5022830;28;20616;-58
2024/02/20 12:31:23;;;;;;;14.73;4.47;;;10.80;99.90;;;;;;5020843;28;20830;-60
2024/02/20 12:33:52;;;;;;;10.93;4.33;;;10.70;99.90;;;;;;5025830;28;20731;-58
2024/02/20 12:36:23;;;;;;;10.10;4.40;;;10.60;99.90;;;;;;5024134;28;20997;-58
2024/02/20 12:38:52;;;;;;;9.77;4.30;;;10.50;99.90;;;;;;5024386;28;20482;-57
2024/02/20 12:41:20;;;;;;;12.03;4.57;;;10.40;99.90;;;;;;5026021;28;20932;-58
2024/02/20 12:43:48;;;;;;;10.60;5.07;;;10.30;99.90;;;;;;5020612;28;20861;-58
2024/02/20 12:46:16;;;;;;;12.50;4.40;;;10.20;99.90;;;;;;5016620;28;20490;-59
2024/02/20 12:48:52;;;;;;;17.00;5.90;;;10.20;99.90;;;;;;5024127;28;20498;-57
2024/02/20 12:51:21;;;;;;;14.10;5.40;;;10.10;99.90;;;;;;5020644;28;20463;-58
2024/02/20 12:53:49;;;;;;;9.40;4.40;;;10.10;99.90;;;;;;5022647;28;20506;-62
2024/02/20 12:56:17;;;;;;;9.70;4.70;;;10.00;99.90;;;;;;5022711;28;20533;-62